createdAt,value
2022-10-22T00:03:44.505Z,100848.19
2022-10-22T00:07:46.112Z,100843.22
2022-10-22T00:11:47.929Z,100843.88
2022-10-22T00:15:49.371Z,100841.38
2022-10-22T00:19:50.814Z,100841.81
2022-10-22T00:23:52.227Z,100841.19
2022-10-22T00:27:53.812Z,100846.53
2022-10-22T00:36:02.021Z,100854.75
2022-10-22T00:40:04.508Z,100849.16
2022-10-22T00:44:06.836Z,100848.97
2022-10-22T00:48:14.975Z,100836.16
2022-10-22T00:52:16.453Z,100839.97
2022-10-22T00:56:18.006Z,100835.16
2022-10-22T01:00:20.169Z,100834.09
2022-10-22T01:04:21.617Z,100834.63
2022-10-22T01:08:46.435Z,100832.88
2022-10-22T01:13:16.555Z,100830.38
2022-10-22T01:17:34.015Z,100831.25
2022-10-22T01:21:50.237Z,100828.75
2022-10-22T01:26:04.000Z,100828.59
2022-10-22T01:30:11.552Z,100834.97
2022-10-22T01:34:16.904Z,100831.94
2022-10-22T01:38:22.772Z,100843.09
2022-10-22T01:42:24.267Z,100843.59
2022-10-22T01:46:27.700Z,100856.03
2022-10-22T01:50:29.058Z,100859.94
2022-10-22T01:54:42.615Z,100848.19
2022-10-22T01:59:07.332Z,100850.63
2022-10-22T02:03:21.263Z,100834.81
2022-10-22T02:07:31.476Z,100846.44
2022-10-22T02:11:32.980Z,100839.91
2022-10-22T02:15:37.833Z,100853.47
2022-10-22T02:19:50.267Z,100843.69
2022-10-22T02:23:51.743Z,100851.50
2022-10-22T02:28:02.512Z,100858.03
2022-10-22T02:32:06.957Z,100853.91
2022-10-22T02:36:09.419Z,100858.56
2022-10-22T02:40:11.967Z,100854.00
2022-10-22T02:44:13.584Z,100856.22
2022-10-22T02:48:15.135Z,100868.69
2022-10-22T02:52:16.590Z,100869.88
2022-10-22T02:56:18.122Z,100870.34
2022-10-22T03:00:19.936Z,100869.88
2022-10-22T03:04:21.348Z,100863.75
2022-10-22T03:08:22.760Z,100858.28
2022-10-22T03:12:24.166Z,100860.06
2022-10-22T03:16:25.612Z,100844.94
2022-10-22T03:20:27.228Z,100848.06
2022-10-22T03:24:37.513Z,100852.94
2022-10-22T03:28:40.808Z,100865.69
2022-10-22T03:32:42.213Z,100867.47
2022-10-22T03:36:43.989Z,100867.72
2022-10-22T03:40:46.175Z,100877.09
2022-10-22T03:44:47.775Z,100881.16
2022-10-22T03:48:49.201Z,100883.47
2022-10-22T03:52:50.622Z,100878.09
2022-10-22T03:56:52.051Z,100883.59
2022-10-22T04:00:53.508Z,100886.66
2022-10-22T04:04:54.920Z,100891.34
2022-10-22T04:08:56.522Z,100895.72
2022-10-22T04:12:57.984Z,100891.44
2022-10-22T04:16:59.435Z,100891.34
2022-10-22T04:21:00.862Z,100896.97
2022-10-22T04:25:04.614Z,100900.91
2022-10-22T04:29:08.679Z,100900.16
2022-10-22T04:33:12.188Z,100900.63
2022-10-22T04:37:13.636Z,100898.31
2022-10-22T04:41:20.878Z,100907.63
2022-10-22T04:45:22.591Z,100904.94
2022-10-22T04:49:24.248Z,100914.31
2022-10-22T04:53:25.786Z,100910.06
2022-10-22T04:57:30.936Z,100910.59
2022-10-22T05:01:41.660Z,100899.69
2022-10-22T05:05:44.470Z,100899.94
2022-10-22T05:09:45.877Z,100902.13
2022-10-22T05:13:47.890Z,100898.72
2022-10-22T05:17:49.293Z,100893.16
2022-10-22T05:21:52.571Z,100892.38
2022-10-22T05:25:54.032Z,100898.41
2022-10-22T05:29:55.425Z,100892.84
2022-10-22T05:33:56.985Z,100890.19
2022-10-22T05:37:58.421Z,100901.25
2022-10-22T05:41:59.843Z,100892.44
2022-10-22T05:46:06.569Z,100897.84
2022-10-22T05:50:08.291Z,100892.63
2022-10-22T05:54:17.548Z,100902.22
2022-10-22T05:58:18.978Z,100905.50
2022-10-22T06:02:20.383Z,100905.50
2022-10-22T06:06:26.155Z,100906.50
2022-10-22T06:10:28.010Z,100909.00
2022-10-22T06:14:32.143Z,100917.19
2022-10-22T06:18:33.857Z,100919.47
2022-10-22T06:22:35.279Z,100937.25
2022-10-22T06:26:36.824Z,100941.72
2022-10-22T06:30:41.827Z,100946.34
2022-10-22T06:34:46.546Z,100960.75
2022-10-22T06:38:51.851Z,100967.63
2022-10-22T06:42:53.283Z,100969.59
2022-10-22T06:46:54.748Z,100979.16
2022-10-22T06:50:56.903Z,100986.16
2022-10-22T06:54:58.343Z,100985.09
2022-10-22T06:58:59.930Z,100981.38
2022-10-22T07:03:01.328Z,100985.56
2022-10-22T07:07:02.784Z,100981.28
2022-10-22T07:11:16.591Z,100987.78
2022-10-22T07:15:18.117Z,100991.59
2022-10-22T07:19:19.549Z,100985.72
2022-10-22T07:23:20.964Z,100996.13
2022-10-22T07:27:22.391Z,101006.06
2022-10-22T07:31:23.813Z,101005.25
2022-10-22T07:35:25.243Z,100999.44
2022-10-22T07:39:26.738Z,101005.16
2022-10-22T07:43:28.294Z,101021.94
2022-10-22T07:47:29.787Z,101019.41
2022-10-22T07:51:31.196Z,101017.16
2022-10-22T07:55:33.487Z,101017.75
2022-10-22T07:59:34.931Z,101021.66
2022-10-22T08:03:36.510Z,101023.16
2022-10-22T08:07:37.914Z,101035.03
2022-10-22T08:11:39.343Z,101041.09
2022-10-22T08:15:42.523Z,101032.63
2022-10-22T08:19:43.945Z,101044.19
2022-10-22T08:23:45.398Z,101039.38
2022-10-22T08:27:46.802Z,101039.13
2022-10-22T08:31:49.552Z,101050.84
2022-10-22T08:35:51.994Z,101056.78
2022-10-22T08:39:53.470Z,101064.84
2022-10-22T08:44:06.304Z,101066.50
2022-10-22T08:48:35.113Z,101074.63
2022-10-22T08:52:39.960Z,101076.16
2022-10-22T08:56:46.180Z,101081.91
2022-10-22T09:01:03.795Z,101082.66
2022-10-22T09:05:13.808Z,101080.72
2022-10-22T09:09:17.537Z,101079.91
2022-10-22T09:13:21.220Z,101079.94
2022-10-22T09:17:38.033Z,101084.53
2022-10-22T09:22:11.592Z,101083.56
2022-10-22T09:26:15.779Z,101091.38
2022-10-22T09:30:21.130Z,101087.91
2022-10-22T09:34:22.692Z,101090.16
2022-10-22T09:38:28.800Z,101101.16
2022-10-22T09:42:33.160Z,101102.88
2022-10-22T09:46:39.712Z,101110.09
2022-10-22T09:50:45.703Z,101109.13
2022-10-22T09:54:52.393Z,101112.53
2022-10-22T09:58:57.228Z,101124.03
2022-10-22T10:03:00.309Z,101112.94
2022-10-22T10:07:01.845Z,101117.91
2022-10-22T10:11:14.477Z,101121.88
2022-10-22T10:15:38.182Z,101128.06
2022-10-22T10:19:50.055Z,101131.66
2022-10-22T10:24:17.263Z,101132.75
2022-10-22T10:28:47.911Z,101128.97
2022-10-22T10:33:15.772Z,101129.94
2022-10-22T10:37:35.352Z,101130.81
2022-10-22T10:41:56.047Z,101126.34
2022-10-22T10:46:33.454Z,101129.41
2022-10-22T10:50:49.455Z,101128.03
2022-10-22T10:55:11.907Z,101126.13
2022-10-22T10:59:42.740Z,101135.66
2022-10-22T11:04:08.864Z,101134.22
2022-10-22T11:08:31.328Z,101126.34
2022-10-22T11:12:44.397Z,101124.22
2022-10-22T11:16:53.069Z,101130.22
2022-10-22T11:21:08.947Z,101127.47
2022-10-22T11:25:13.306Z,101120.38
2022-10-22T11:29:25.635Z,101127.56
2022-10-22T11:33:39.257Z,101122.69
2022-10-22T11:37:44.250Z,101120.81
2022-10-22T11:41:46.001Z,101120.59
2022-10-22T11:45:50.329Z,101115.06
2022-10-22T11:49:58.526Z,101123.28
2022-10-22T11:54:21.923Z,101132.88
2022-10-22T11:58:29.880Z,101131.13
2022-10-22T12:02:40.583Z,101132.16
2022-10-22T12:06:53.389Z,101125.09
2022-10-22T12:11:06.251Z,101131.28
2022-10-22T12:15:24.562Z,101128.47
2022-10-22T12:19:29.685Z,101126.38
2022-10-22T12:23:34.313Z,101130.66
2022-10-22T12:27:38.742Z,101122.84
2022-10-22T12:31:42.469Z,101128.88
2022-10-22T12:35:46.729Z,101128.66
2022-10-22T12:39:48.240Z,101122.03
2022-10-22T12:43:58.200Z,101129.03
2022-10-22T12:48:02.957Z,101120.22
2022-10-22T12:52:10.858Z,101119.25
2022-10-22T12:56:20.912Z,101123.19
2022-10-22T13:00:27.045Z,101124.09
2022-10-22T13:04:37.457Z,101120.00
2022-10-22T13:08:39.396Z,101118.00
2022-10-22T13:12:48.582Z,101127.25
2022-10-22T13:17:12.739Z,101129.53
2022-10-22T13:21:35.229Z,101134.69
2022-10-22T13:25:40.771Z,101129.34
2022-10-22T13:29:42.523Z,101131.88
2022-10-22T13:33:46.861Z,101128.53
2022-10-22T13:37:48.262Z,101137.69
2022-10-22T13:41:50.509Z,101127.53
2022-10-22T13:45:55.433Z,101132.94
2022-10-22T13:50:01.565Z,101130.69
2022-10-22T13:54:04.497Z,101126.44
2022-10-22T13:58:11.618Z,101132.94
2022-10-22T14:02:13.819Z,101135.47
2022-10-22T14:06:17.706Z,101148.38
2022-10-22T14:10:21.825Z,101143.81
2022-10-22T14:14:23.236Z,101143.38
2022-10-22T14:18:28.875Z,101134.06
2022-10-22T14:22:30.692Z,101140.00
2022-10-22T14:26:33.228Z,101136.94
2022-10-22T14:30:34.742Z,101134.00
2022-10-22T14:34:36.238Z,101143.31
2022-10-22T14:38:37.656Z,101145.53
2022-10-22T14:42:42.049Z,101143.84
2022-10-22T14:46:44.304Z,101142.59
2022-10-22T14:50:47.788Z,101144.97
2022-10-22T14:54:49.187Z,101148.25
2022-10-22T14:58:50.884Z,101145.94
2022-10-22T15:02:52.434Z,101139.84
2022-10-22T15:06:56.326Z,101145.00
2022-10-22T15:11:05.998Z,101144.69
2022-10-22T15:15:07.864Z,101149.19
2022-10-22T15:19:11.069Z,101149.72
2022-10-22T15:23:12.465Z,101168.53
2022-10-22T15:27:14.455Z,101183.91
2022-10-22T15:31:16.048Z,101187.50
2022-10-22T15:35:17.467Z,101173.41
2022-10-22T15:39:18.984Z,101171.75
2022-10-22T15:43:20.633Z,101179.25
2022-10-22T15:47:22.574Z,101172.81
2022-10-22T15:51:24.776Z,101182.56
2022-10-22T15:55:26.776Z,101182.16
2022-10-22T15:59:28.442Z,101180.63
2022-10-22T16:03:32.881Z,101187.72
2022-10-22T16:07:34.300Z,101188.06
2022-10-22T16:11:36.930Z,101187.69
2022-10-22T16:15:38.337Z,101196.44
2022-10-22T16:19:39.739Z,101196.31
2022-10-22T16:23:42.150Z,101197.50
2022-10-22T16:27:43.589Z,101205.06
2022-10-22T16:31:45.432Z,101201.84
2022-10-22T16:35:48.381Z,101205.00
2022-10-22T16:39:49.781Z,101213.16
2022-10-22T16:43:54.979Z,101207.25
2022-10-22T16:47:56.396Z,101214.88
2022-10-22T16:51:57.831Z,101214.00
2022-10-22T16:55:59.405Z,101215.66
2022-10-22T17:00:01.013Z,101215.50
2022-10-22T17:04:02.471Z,101214.13
2022-10-22T17:08:04.115Z,101215.19
2022-10-22T17:12:05.739Z,101219.25
2022-10-22T17:16:10.459Z,101222.59
2022-10-22T17:20:11.877Z,101226.00
2022-10-22T17:24:13.340Z,101234.88
2022-10-22T17:28:14.790Z,101238.22
2022-10-22T17:32:16.460Z,101243.78
2022-10-22T17:36:19.318Z,101250.91
2022-10-22T17:40:21.818Z,101250.47
2022-10-22T17:44:23.343Z,101250.00
2022-10-22T17:48:24.765Z,101257.00
2022-10-22T17:52:26.201Z,101253.78
2022-10-22T17:56:30.147Z,101254.50
2022-10-22T18:00:33.373Z,101248.78
2022-10-22T18:04:34.902Z,101255.81
2022-10-22T18:08:36.681Z,101264.56
2022-10-22T18:12:38.259Z,101262.94
2022-10-22T18:16:39.861Z,101271.03
2022-10-22T18:20:41.367Z,101266.47
2022-10-22T18:24:42.970Z,101267.34
2022-10-22T18:28:44.905Z,101268.63
2022-10-22T18:32:46.310Z,101270.59
2022-10-22T18:36:47.724Z,101278.34
2022-10-22T18:40:50.143Z,101284.59
2022-10-22T18:44:51.824Z,101268.91
2022-10-22T18:48:55.191Z,101264.50
2022-10-22T18:52:56.656Z,101264.63
2022-10-22T18:57:01.911Z,101266.13
2022-10-22T19:01:17.560Z,101267.22
2022-10-22T19:05:19.106Z,101275.25
2022-10-22T19:09:25.270Z,101276.63
2022-10-22T19:13:26.845Z,101272.19
2022-10-22T19:17:28.282Z,101277.28
2022-10-22T19:21:30.548Z,101273.94
2022-10-22T19:25:31.989Z,101278.19
2022-10-22T19:29:33.428Z,101269.50
2022-10-22T19:33:37.265Z,101281.72
2022-10-22T19:37:39.174Z,101278.44
2022-10-22T19:41:40.606Z,101293.25
2022-10-22T19:45:42.073Z,101293.31
2022-10-22T19:49:43.669Z,101310.81
2022-10-22T19:53:45.491Z,101302.69
2022-10-22T19:57:47.044Z,101315.84
2022-10-22T20:01:48.832Z,101323.38
2022-10-22T20:05:51.008Z,101326.06
2022-10-22T20:09:52.469Z,101328.53
2022-10-22T20:13:54.870Z,101325.66
2022-10-22T20:17:56.347Z,101329.09
2022-10-22T20:26:04.742Z,101342.47
2022-10-22T20:30:07.292Z,101347.59
2022-10-22T20:34:09.065Z,101350.69
2022-10-22T20:38:14.655Z,101349.50
2022-10-22T20:42:16.495Z,101357.88
2022-10-22T20:46:31.721Z,101364.22
2022-10-22T20:50:33.326Z,101360.06
2022-10-22T20:54:34.997Z,101378.53
2022-10-22T20:58:37.574Z,101376.06
2022-10-22T21:02:39.127Z,101376.34
2022-10-22T21:06:42.806Z,101381.84
2022-10-22T21:10:48.949Z,101387.56
2022-10-22T21:14:50.535Z,101395.94
2022-10-22T21:18:52.047Z,101395.97
2022-10-22T21:22:53.455Z,101397.88
2022-10-22T21:26:55.066Z,101400.94
2022-10-22T21:30:56.501Z,101405.75
2022-10-22T21:34:57.886Z,101401.09
2022-10-22T21:39:00.704Z,101408.94
2022-10-22T21:43:02.128Z,101400.38
2022-10-22T21:47:03.717Z,101404.91
2022-10-22T21:51:13.479Z,101408.41
2022-10-22T21:55:14.887Z,101415.13
2022-10-22T21:59:16.327Z,101420.53
2022-10-22T22:03:17.917Z,101420.53
2022-10-22T22:07:19.310Z,101417.94
2022-10-22T22:11:23.916Z,101421.78
2022-10-22T22:15:25.353Z,101428.34
2022-10-22T22:19:27.008Z,101427.47
2022-10-22T22:23:28.423Z,101427.56
2022-10-22T22:27:30.028Z,101416.31
2022-10-22T22:31:33.680Z,101425.84
2022-10-22T22:35:36.933Z,101415.06
2022-10-22T22:39:38.317Z,101412.31
2022-10-22T22:43:39.746Z,101414.34
2022-10-22T22:47:41.419Z,101412.78
2022-10-22T22:51:43.935Z,101412.09
2022-10-22T22:55:45.412Z,101418.84
2022-10-22T22:59:50.425Z,101423.75
2022-10-22T23:04:07.345Z,101413.69
2022-10-22T23:08:08.764Z,101412.09
2022-10-22T23:12:10.274Z,101412.47
2022-10-22T23:16:15.735Z,101421.34
2022-10-22T23:20:17.182Z,101414.84
2022-10-22T23:24:22.115Z,101412.06
2022-10-22T23:28:24.113Z,101408.94
2022-10-22T23:32:25.572Z,101408.78
2022-10-22T23:36:27.351Z,101411.19
2022-10-22T23:40:28.744Z,101416.56
2022-10-22T23:44:30.245Z,101413.94
2022-10-22T23:48:31.749Z,101416.50
2022-10-22T23:52:33.215Z,101415.13
2022-10-22T23:56:35.496Z,101411.09
